EAG0725 SBVC-SBZM
Flight info
| Callsign | EAG0725 |
|---|---|
| Flight time | 1h 17m |
| Altitude | 37000 |
| Route | MIBEM DCT KUMIB UZ80 VUKUB UZ72 ILPIR UZ4 DAKDA |
| Aircraft | A20N/L-L/2000 |
Departure
| Time | 2026-05-06 00:43 |
|---|---|
| Airport | Glauber de Andrade Rocha Airport (SBVC) |
Arrival
| Time | 2026-05-06 02:01 |
|---|---|
| Airport | Presidente Itamar Franco Airport (SBZM) |
| Time | Latitude | Longitude | Altitude | Speed | Heading |
|---|---|---|---|---|---|
| 2026-05-06 00:14 | -14.90962 | -40.91712 | 2943 ft | 0 kts | 215° |
| 2026-05-06 00:34 | -14.90953 | -40.91705 | 2943 ft | 2 kts | 215° |
| 2026-05-06 00:34 | -14.90940 | -40.91696 | 2943 ft | 2 kts | 216° |
| 2026-05-06 00:35 | -14.90932 | -40.91683 | 2943 ft | 2 kts | 260° |
| 2026-05-06 00:35 | -14.90933 | -40.91668 | 2943 ft | 1 kts | 295° |
| 2026-05-06 00:35 | -14.90937 | -40.91662 | 2943 ft | 1 kts | 311° |
| 2026-05-06 00:35 | -14.90939 | -40.91658 | 2943 ft | 0 kts | 306° |
| 2026-05-06 00:37 | -14.90938 | -40.91660 | 2942 ft | 0 kts | 306° |
| 2026-05-06 00:37 | -14.90933 | -40.91667 | 2942 ft | 1 kts | 306° |
| 2026-05-06 00:37 | -14.90925 | -40.91679 | 2943 ft | 2 kts | 305° |
| 2026-05-06 00:38 | -14.90914 | -40.91694 | 2943 ft | 3 kts | 305° |
| 2026-05-06 00:38 | -14.90900 | -40.91715 | 2943 ft | 4 kts | 306° |
| 2026-05-06 00:38 | -14.90875 | -40.91729 | 2942 ft | 4 kts | 2° |
| 2026-05-06 00:38 | -14.90842 | -40.91713 | 2942 ft | 5 kts | 34° |
| 2026-05-06 00:39 | -14.90808 | -40.91689 | 2943 ft | 6 kts | 36° |
| 2026-05-06 00:39 | -14.90770 | -40.91660 | 2942 ft | 7 kts | 36° |
| 2026-05-06 00:39 | -14.90727 | -40.91627 | 2942 ft | 8 kts | 30° |
| 2026-05-06 00:39 | -14.90677 | -40.91639 | 2943 ft | 8 kts | 317° |
| 2026-05-06 00:40 | -14.90638 | -40.91688 | 2942 ft | 9 kts | 308° |
| 2026-05-06 00:40 | -14.90598 | -40.91742 | 2942 ft | 9 kts | 306° |
| 2026-05-06 00:40 | -14.90556 | -40.91802 | 2942 ft | 10 kts | 306° |
| 2026-05-06 00:40 | -14.90511 | -40.91866 | 2943 ft | 11 kts | 306° |
| 2026-05-06 00:41 | -14.90465 | -40.91932 | 2942 ft | 11 kts | 306° |
| 2026-05-06 00:41 | -14.90417 | -40.92001 | 2942 ft | 12 kts | 306° |
| 2026-05-06 00:41 | -14.90366 | -40.92073 | 2942 ft | 12 kts | 306° |
| 2026-05-06 00:41 | -14.90313 | -40.92147 | 2943 ft | 12 kts | 307° |
| 2026-05-06 00:42 | -14.90276 | -40.92228 | 2943 ft | 13 kts | 262° |
| 2026-05-06 00:42 | -14.90243 | -40.92243 | 2943 ft | 6 kts | 92° |
| 2026-05-06 00:42 | -14.90246 | -40.92237 | 2942 ft | 0 kts | 126° |
| 2026-05-06 00:42 | -14.90257 | -40.92221 | 2943 ft | 21 kts | 126° |
| 2026-05-06 00:43 | -14.90514 | -40.91866 | 2943 ft | 99 kts | 127° |
| 2026-05-06 00:43 | -14.91056 | -40.91109 | 2955 ft | 158 kts | 128° |
| 2026-05-06 00:43 | -14.91717 | -40.90167 | 3525 ft | 163 kts | 128° |
| 2026-05-06 00:43 | -14.92369 | -40.89223 | 4193 ft | 166 kts | 133° |
| 2026-05-06 00:44 | -14.93309 | -40.88617 | 4859 ft | 163 kts | 175° |
| 2026-05-06 00:44 | -14.94396 | -40.88906 | 5319 ft | 174 kts | 216° |
| 2026-05-06 00:44 | -14.95143 | -40.89938 | 5784 ft | 190 kts | 243° |
| 2026-05-06 00:44 | -14.95677 | -40.91209 | 6382 ft | 198 kts | 245° |
| 2026-05-06 00:45 | -14.96254 | -40.92553 | 6895 ft | 212 kts | 244° |
| 2026-05-06 00:45 | -14.96898 | -40.93991 | 7328 ft | 232 kts | 243° |
| 2026-05-06 00:45 | -14.97625 | -40.95581 | 7735 ft | 255 kts | 243° |
| 2026-05-06 00:45 | -14.98421 | -40.97304 | 8274 ft | 274 kts | 245° |
| 2026-05-06 00:46 | -14.99264 | -40.99107 | 8889 ft | 288 kts | 245° |
| 2026-05-06 00:46 | -15.00136 | -41.00984 | 9750 ft | 293 kts | 243° |
| 2026-05-06 00:46 | -15.01414 | -41.02626 | 10615 ft | 298 kts | 215° |
| 2026-05-06 00:46 | -15.03314 | -41.03436 | 11510 ft | 300 kts | 192° |
| 2026-05-06 00:47 | -15.05370 | -41.03778 | 12396 ft | 303 kts | 188° |
| 2026-05-06 00:47 | -15.07464 | -41.04071 | 13201 ft | 307 kts | 188° |
| 2026-05-06 00:47 | -15.09601 | -41.04409 | 13838 ft | 318 kts | 189° |
| 2026-05-06 00:47 | -15.11852 | -41.04812 | 14333 ft | 333 kts | 191° |
| 2026-05-06 00:48 | -15.14138 | -41.05251 | 15062 ft | 338 kts | 191° |
| 2026-05-06 00:48 | -15.16427 | -41.05709 | 15818 ft | 342 kts | 191° |
| 2026-05-06 00:48 | -15.18764 | -41.06186 | 16537 ft | 347 kts | 192° |
| 2026-05-06 00:48 | -15.21155 | -41.06681 | 17235 ft | 352 kts | 192° |
| 2026-05-06 00:49 | -15.23578 | -41.07185 | 17934 ft | 356 kts | 192° |
| 2026-05-06 00:49 | -15.26022 | -41.07696 | 18728 ft | 357 kts | 192° |
| 2026-05-06 00:49 | -15.28478 | -41.08210 | 19424 ft | 360 kts | 191° |
| 2026-05-06 00:49 | -15.30935 | -41.08724 | 20051 ft | 365 kts | 191° |
| 2026-05-06 00:50 | -15.33443 | -41.09249 | 20680 ft | 370 kts | 191° |
| 2026-05-06 00:50 | -15.35974 | -41.09779 | 21308 ft | 374 kts | 191° |
| 2026-05-06 00:50 | -15.38510 | -41.10310 | 21923 ft | 378 kts | 191° |
| 2026-05-06 00:50 | -15.41087 | -41.10849 | 22534 ft | 382 kts | 190° |
| 2026-05-06 00:51 | -15.43693 | -41.11409 | 23140 ft | 386 kts | 193° |
| 2026-05-06 00:51 | -15.46247 | -41.12311 | 23728 ft | 390 kts | 204° |
| 2026-05-06 00:51 | -15.48618 | -41.13705 | 24307 ft | 395 kts | 214° |
| 2026-05-06 00:51 | -15.50784 | -41.15393 | 24870 ft | 398 kts | 217° |
| 2026-05-06 00:52 | -15.52957 | -41.17187 | 25411 ft | 402 kts | 218° |
| 2026-05-06 00:52 | -15.55144 | -41.19002 | 25937 ft | 406 kts | 217° |
| 2026-05-06 00:52 | -15.57352 | -41.20826 | 26528 ft | 407 kts | 217° |
| 2026-05-06 00:52 | -15.59570 | -41.22648 | 27166 ft | 407 kts | 216° |
| 2026-05-06 00:53 | -15.61799 | -41.24469 | 27703 ft | 409 kts | 216° |
| 2026-05-06 00:53 | -15.64008 | -41.26271 | 28179 ft | 411 kts | 216° |
| 2026-05-06 00:53 | -15.66258 | -41.28103 | 28649 ft | 414 kts | 215° |
| 2026-05-06 00:53 | -15.68532 | -41.29953 | 29115 ft | 416 kts | 215° |
| 2026-05-06 00:54 | -15.70795 | -41.31795 | 29557 ft | 418 kts | 215° |
| 2026-05-06 00:54 | -15.73102 | -41.33673 | 29989 ft | 420 kts | 214° |
| 2026-05-06 00:54 | -15.75372 | -41.35521 | 30399 ft | 421 kts | 214° |
| 2026-05-06 00:54 | -15.77689 | -41.37407 | 30746 ft | 425 kts | 214° |
| 2026-05-06 00:55 | -15.80008 | -41.39295 | 30999 ft | 430 kts | 214° |
| 2026-05-06 00:55 | -15.82388 | -41.41232 | 31329 ft | 432 kts | 214° |
| 2026-05-06 00:55 | -15.84733 | -41.43144 | 31686 ft | 434 kts | 214° |
| 2026-05-06 00:55 | -15.87119 | -41.45090 | 32050 ft | 435 kts | 214° |
| 2026-05-06 00:56 | -15.89485 | -41.47020 | 32400 ft | 436 kts | 214° |
| 2026-05-06 00:56 | -15.91843 | -41.48944 | 32738 ft | 437 kts | 214° |
| 2026-05-06 00:56 | -15.94241 | -41.50901 | 33077 ft | 437 kts | 213° |
| 2026-05-06 00:56 | -15.96616 | -41.52840 | 33448 ft | 437 kts | 213° |
| 2026-05-06 00:57 | -15.99003 | -41.54791 | 33907 ft | 434 kts | 213° |
| 2026-05-06 00:57 | -16.01354 | -41.56712 | 34367 ft | 430 kts | 213° |
| 2026-05-06 00:57 | -16.03677 | -41.58610 | 34767 ft | 428 kts | 213° |
| 2026-05-06 00:57 | -16.06023 | -41.60526 | 35121 ft | 427 kts | 213° |
| 2026-05-06 00:58 | -16.08334 | -41.62414 | 35449 ft | 427 kts | 213° |
| 2026-05-06 00:58 | -16.10679 | -41.64331 | 35747 ft | 427 kts | 213° |
| 2026-05-06 00:58 | -16.13029 | -41.66246 | 36001 ft | 428 kts | 213° |
| 2026-05-06 00:58 | -16.15355 | -41.68153 | 36222 ft | 429 kts | 213° |
| 2026-05-06 00:59 | -16.17712 | -41.70089 | 36442 ft | 430 kts | 213° |
| 2026-05-06 00:59 | -16.20037 | -41.71997 | 36653 ft | 431 kts | 213° |
| 2026-05-06 00:59 | -16.22399 | -41.73935 | 36855 ft | 432 kts | 213° |
| 2026-05-06 00:59 | -16.24738 | -41.75852 | 37045 ft | 433 kts | 213° |
| 2026-05-06 01:00 | -16.27109 | -41.77796 | 37207 ft | 435 kts | 213° |
| 2026-05-06 01:00 | -16.31883 | -41.81712 | 37230 ft | 436 kts | 213° |
| 2026-05-06 01:01 | -16.36618 | -41.85598 | 37234 ft | 436 kts | 213° |
| 2026-05-06 01:01 | -16.41362 | -41.89493 | 37235 ft | 436 kts | 213° |
| 2026-05-06 01:02 | -16.46109 | -41.93393 | 37235 ft | 436 kts | 213° |
| 2026-05-06 01:02 | -16.50856 | -41.97296 | 37235 ft | 436 kts | 213° |
| 2026-05-06 01:03 | -16.55614 | -42.01210 | 37235 ft | 436 kts | 213° |
| 2026-05-06 01:03 | -16.60358 | -42.05114 | 37235 ft | 436 kts | 213° |
| 2026-05-06 01:04 | -16.65105 | -42.09024 | 37235 ft | 436 kts | 213° |
| 2026-05-06 01:04 | -16.69848 | -42.12933 | 37235 ft | 436 kts | 213° |
| 2026-05-06 01:05 | -16.74608 | -42.16859 | 37235 ft | 436 kts | 213° |
| 2026-05-06 01:05 | -16.79359 | -42.20781 | 37235 ft | 436 kts | 213° |
| 2026-05-06 01:06 | -16.84103 | -42.24697 | 37235 ft | 436 kts | 213° |
| 2026-05-06 01:06 | -16.88829 | -42.28601 | 37235 ft | 436 kts | 213° |
| 2026-05-06 01:07 | -16.93577 | -42.32526 | 37235 ft | 436 kts | 213° |
| 2026-05-06 01:07 | -16.98307 | -42.36436 | 37235 ft | 436 kts | 214° |
| 2026-05-06 01:08 | -17.03055 | -42.40359 | 37235 ft | 436 kts | 214° |
| 2026-05-06 01:08 | -17.07812 | -42.44296 | 37235 ft | 436 kts | 216° |
| 2026-05-06 01:09 | -17.12557 | -42.48220 | 37236 ft | 436 kts | 216° |
| 2026-05-06 01:09 | -17.17297 | -42.52139 | 37236 ft | 436 kts | 216° |
| 2026-05-06 01:10 | -17.22042 | -42.56075 | 37236 ft | 436 kts | 216° |
| 2026-05-06 01:10 | -17.26770 | -42.60003 | 37236 ft | 436 kts | 216° |
| 2026-05-06 01:11 | -17.31490 | -42.63928 | 37235 ft | 436 kts | 216° |
| 2026-05-06 01:11 | -17.36236 | -42.67895 | 37248 ft | 436 kts | 217° |
| 2026-05-06 01:12 | -17.40950 | -42.71836 | 37270 ft | 436 kts | 216° |
| 2026-05-06 01:12 | -17.45834 | -42.75509 | 37283 ft | 434 kts | 210° |
| 2026-05-06 01:13 | -17.51073 | -42.78548 | 37288 ft | 432 kts | 203° |
| 2026-05-06 01:13 | -17.56621 | -42.80950 | 37290 ft | 431 kts | 198° |
| 2026-05-06 01:14 | -17.65014 | -42.84201 | 37290 ft | 431 kts | 198° |
| 2026-05-06 01:14 | -17.70610 | -42.86377 | 37290 ft | 430 kts | 198° |
| 2026-05-06 01:15 | -17.76214 | -42.88562 | 37290 ft | 430 kts | 198° |
| 2026-05-06 01:15 | -17.81785 | -42.90736 | 37290 ft | 430 kts | 198° |
| 2026-05-06 01:16 | -17.87399 | -42.92930 | 37290 ft | 430 kts | 198° |
| 2026-05-06 01:16 | -17.92975 | -42.95110 | 37290 ft | 430 kts | 198° |
| 2026-05-06 01:17 | -17.98563 | -42.97297 | 37290 ft | 430 kts | 198° |
| 2026-05-06 01:17 | -18.04174 | -42.99493 | 37290 ft | 430 kts | 198° |
| 2026-05-06 01:18 | -18.09779 | -43.01689 | 37290 ft | 430 kts | 198° |
| 2026-05-06 01:18 | -18.15351 | -43.03865 | 37290 ft | 429 kts | 199° |
| 2026-05-06 01:19 | -18.20914 | -43.06043 | 37290 ft | 429 kts | 199° |
| 2026-05-06 01:19 | -18.26494 | -43.08232 | 37290 ft | 428 kts | 199° |
| 2026-05-06 01:20 | -18.32049 | -43.10416 | 37290 ft | 428 kts | 199° |
| 2026-05-06 01:20 | -18.37609 | -43.12602 | 37289 ft | 428 kts | 199° |
| 2026-05-06 01:21 | -18.43282 | -43.14550 | 37289 ft | 427 kts | 196° |
| 2026-05-06 01:21 | -18.48926 | -43.16394 | 37290 ft | 427 kts | 196° |
| 2026-05-06 01:22 | -18.54661 | -43.18274 | 37290 ft | 427 kts | 196° |
| 2026-05-06 01:22 | -18.60328 | -43.20137 | 37290 ft | 428 kts | 196° |
| 2026-05-06 01:23 | -18.66035 | -43.22016 | 37290 ft | 428 kts | 196° |
| 2026-05-06 01:23 | -18.71668 | -43.23913 | 37290 ft | 428 kts | 197° |
| 2026-05-06 01:24 | -18.77300 | -43.25889 | 37290 ft | 428 kts | 197° |
| 2026-05-06 01:24 | -18.83010 | -43.27888 | 37290 ft | 428 kts | 197° |
| 2026-05-06 01:25 | -18.88681 | -43.29867 | 37290 ft | 428 kts | 197° |
| 2026-05-06 01:25 | -18.94311 | -43.31825 | 37290 ft | 426 kts | 198° |
| 2026-05-06 01:26 | -18.99935 | -43.33787 | 37289 ft | 426 kts | 199° |
| 2026-05-06 01:26 | -19.05605 | -43.35772 | 37289 ft | 429 kts | 199° |
| 2026-05-06 01:27 | -19.11281 | -43.37764 | 37289 ft | 430 kts | 199° |
| 2026-05-06 01:27 | -19.16963 | -43.39747 | 37290 ft | 430 kts | 199° |
| 2026-05-06 01:28 | -19.22684 | -43.41748 | 37289 ft | 430 kts | 198° |
| 2026-05-06 01:28 | -19.28452 | -43.43197 | 37288 ft | 432 kts | 189° |
| 2026-05-06 01:29 | -19.34468 | -43.43615 | 37288 ft | 433 kts | 179° |
| 2026-05-06 01:29 | -19.40422 | -43.42970 | 37289 ft | 434 kts | 171° |
| 2026-05-06 01:30 | -19.46359 | -43.41852 | 37290 ft | 434 kts | 171° |
| 2026-05-06 01:30 | -19.52322 | -43.40719 | 37290 ft | 434 kts | 171° |
| 2026-05-06 01:31 | -19.58266 | -43.39605 | 37290 ft | 434 kts | 171° |
| 2026-05-06 01:31 | -19.64196 | -43.38496 | 37290 ft | 434 kts | 171° |
| 2026-05-06 01:32 | -19.70151 | -43.37379 | 37290 ft | 434 kts | 171° |
| 2026-05-06 01:32 | -19.76095 | -43.36263 | 37290 ft | 434 kts | 171° |
| 2026-05-06 01:33 | -19.82001 | -43.35156 | 36684 ft | 439 kts | 171° |
| 2026-05-06 01:33 | -19.85044 | -43.34587 | 35989 ft | 440 kts | 171° |
| 2026-05-06 01:33 | -19.88029 | -43.34027 | 35329 ft | 441 kts | 171° |
| 2026-05-06 01:34 | -19.91071 | -43.33456 | 34660 ft | 442 kts | 171° |
| 2026-05-06 01:34 | -19.94074 | -43.32890 | 34005 ft | 442 kts | 171° |
| 2026-05-06 01:34 | -19.97103 | -43.32317 | 33334 ft | 443 kts | 171° |
| 2026-05-06 01:34 | -20.00119 | -43.31746 | 32704 ft | 442 kts | 171° |
| 2026-05-06 01:35 | -20.03135 | -43.31176 | 32271 ft | 436 kts | 171° |
| 2026-05-06 01:35 | -20.06057 | -43.30624 | 31837 ft | 431 kts | 171° |
| 2026-05-06 01:35 | -20.08982 | -43.30072 | 31395 ft | 426 kts | 171° |
| 2026-05-06 01:35 | -20.11904 | -43.29523 | 30950 ft | 422 kts | 171° |
| 2026-05-06 01:36 | -20.14779 | -43.29008 | 30510 ft | 418 kts | 171° |
| 2026-05-06 01:36 | -20.17629 | -43.28505 | 30072 ft | 414 kts | 171° |
| 2026-05-06 01:36 | -20.20429 | -43.28009 | 29641 ft | 410 kts | 171° |
| 2026-05-06 01:36 | -20.23224 | -43.27506 | 29209 ft | 407 kts | 171° |
| 2026-05-06 01:37 | -20.26003 | -43.27001 | 28778 ft | 403 kts | 171° |
| 2026-05-06 01:37 | -20.28753 | -43.26501 | 28351 ft | 400 kts | 171° |
| 2026-05-06 01:37 | -20.31487 | -43.26005 | 27923 ft | 397 kts | 171° |
| 2026-05-06 01:37 | -20.34195 | -43.25514 | 27498 ft | 394 kts | 171° |
| 2026-05-06 01:38 | -20.36855 | -43.25032 | 27077 ft | 391 kts | 171° |
| 2026-05-06 01:38 | -20.39525 | -43.24548 | 26655 ft | 388 kts | 171° |
| 2026-05-06 01:38 | -20.42174 | -43.24067 | 26231 ft | 385 kts | 171° |
| 2026-05-06 01:38 | -20.44796 | -43.23592 | 25813 ft | 382 kts | 171° |
| 2026-05-06 01:39 | -20.47404 | -43.23119 | 25394 ft | 379 kts | 171° |
| 2026-05-06 01:39 | -20.49956 | -43.22656 | 24984 ft | 376 kts | 171° |
| 2026-05-06 01:39 | -20.52524 | -43.22190 | 24569 ft | 373 kts | 171° |
| 2026-05-06 01:39 | -20.55069 | -43.21728 | 24157 ft | 371 kts | 171° |
| 2026-05-06 01:40 | -20.57598 | -43.21268 | 23747 ft | 368 kts | 171° |
| 2026-05-06 01:40 | -20.60105 | -43.20813 | 23338 ft | 365 kts | 171° |
| 2026-05-06 01:40 | -20.62601 | -43.20359 | 22931 ft | 363 kts | 171° |
| 2026-05-06 01:40 | -20.65078 | -43.19909 | 22523 ft | 360 kts | 171° |
| 2026-05-06 01:41 | -20.67527 | -43.19464 | 22123 ft | 358 kts | 171° |
| 2026-05-06 01:41 | -20.69980 | -43.19019 | 21721 ft | 355 kts | 171° |
| 2026-05-06 01:41 | -20.72415 | -43.18576 | 21321 ft | 353 kts | 171° |
| 2026-05-06 01:41 | -20.74799 | -43.18142 | 20930 ft | 350 kts | 171° |
| 2026-05-06 01:42 | -20.77214 | -43.17703 | 20532 ft | 348 kts | 171° |
| 2026-05-06 01:42 | -20.79555 | -43.17276 | 20145 ft | 346 kts | 171° |
| 2026-05-06 01:42 | -20.81940 | -43.16849 | 19751 ft | 343 kts | 172° |
| 2026-05-06 01:42 | -20.84283 | -43.16462 | 19363 ft | 341 kts | 172° |
| 2026-05-06 01:43 | -20.86603 | -43.16089 | 18978 ft | 338 kts | 172° |
| 2026-05-06 01:43 | -20.88908 | -43.15718 | 18595 ft | 336 kts | 172° |
| 2026-05-06 01:43 | -20.91206 | -43.15348 | 18212 ft | 334 kts | 172° |
| 2026-05-06 01:43 | -20.93501 | -43.14978 | 17828 ft | 332 kts | 172° |
| 2026-05-06 01:44 | -20.95765 | -43.14611 | 17450 ft | 329 kts | 172° |
| 2026-05-06 01:44 | -20.98015 | -43.14246 | 17070 ft | 327 kts | 172° |
| 2026-05-06 01:44 | -21.00268 | -43.13879 | 16682 ft | 326 kts | 172° |
| 2026-05-06 01:44 | -21.02498 | -43.13517 | 16293 ft | 324 kts | 172° |
| 2026-05-06 01:45 | -21.04710 | -43.13158 | 15903 ft | 323 kts | 172° |
| 2026-05-06 01:45 | -21.06923 | -43.12799 | 15511 ft | 323 kts | 172° |
| 2026-05-06 01:45 | -21.09155 | -43.12438 | 15116 ft | 322 kts | 172° |
| 2026-05-06 01:45 | -21.11352 | -43.12083 | 14708 ft | 322 kts | 172° |
| 2026-05-06 01:46 | -21.13197 | -43.11785 | 14359 ft | 322 kts | 172° |
| 2026-05-06 01:46 | -21.15740 | -43.11373 | 13898 ft | 321 kts | 172° |
| 2026-05-06 01:46 | -21.17983 | -43.11008 | 13506 ft | 320 kts | 172° |
| 2026-05-06 01:46 | -21.20181 | -43.10650 | 13121 ft | 318 kts | 172° |
| 2026-05-06 01:47 | -21.22354 | -43.10295 | 12741 ft | 317 kts | 171° |
| 2026-05-06 01:47 | -21.24523 | -43.09944 | 12359 ft | 315 kts | 173° |
| 2026-05-06 01:47 | -21.26691 | -43.10025 | 11926 ft | 314 kts | 198° |
| 2026-05-06 01:47 | -21.28521 | -43.11165 | 11736 ft | 301 kts | 226° |
| 2026-05-06 01:48 | -21.29654 | -43.12951 | 11683 ft | 284 kts | 246° |
| 2026-05-06 01:48 | -21.30408 | -43.14859 | 11628 ft | 271 kts | 249° |
| 2026-05-06 01:48 | -21.31106 | -43.16725 | 11364 ft | 267 kts | 249° |
| 2026-05-06 01:48 | -21.31796 | -43.18557 | 11069 ft | 264 kts | 249° |
| 2026-05-06 01:49 | -21.32487 | -43.20366 | 10795 ft | 261 kts | 248° |
| 2026-05-06 01:49 | -21.33178 | -43.22150 | 10529 ft | 258 kts | 247° |
| 2026-05-06 01:49 | -21.33837 | -43.23836 | 10270 ft | 255 kts | 247° |
| 2026-05-06 01:49 | -21.34530 | -43.25600 | 9996 ft | 252 kts | 247° |
| 2026-05-06 01:50 | -21.35200 | -43.27305 | 9731 ft | 250 kts | 247° |
| 2026-05-06 01:50 | -21.35873 | -43.29017 | 9464 ft | 248 kts | 247° |
| 2026-05-06 01:50 | -21.36542 | -43.30719 | 9198 ft | 246 kts | 246° |
| 2026-05-06 01:50 | -21.37197 | -43.32388 | 8937 ft | 244 kts | 246° |
| 2026-05-06 01:51 | -21.37859 | -43.34072 | 8673 ft | 242 kts | 246° |
| 2026-05-06 01:51 | -21.38505 | -43.35716 | 8415 ft | 240 kts | 246° |
| 2026-05-06 01:51 | -21.39150 | -43.37359 | 8155 ft | 239 kts | 246° |
| 2026-05-06 01:51 | -21.39800 | -43.39015 | 7897 ft | 241 kts | 246° |
| 2026-05-06 01:52 | -21.40442 | -43.40653 | 7633 ft | 237 kts | 246° |
| 2026-05-06 01:52 | -21.41082 | -43.42284 | 7373 ft | 233 kts | 246° |
| 2026-05-06 01:52 | -21.41784 | -43.43818 | 7092 ft | 229 kts | 231° |
| 2026-05-06 01:52 | -21.42974 | -43.44896 | 6816 ft | 225 kts | 204° |
| 2026-05-06 01:53 | -21.44466 | -43.45263 | 6551 ft | 221 kts | 178° |
| 2026-05-06 01:53 | -21.45948 | -43.44909 | 6301 ft | 217 kts | 159° |
| 2026-05-06 01:53 | -21.47310 | -43.44288 | 6195 ft | 207 kts | 156° |
| 2026-05-06 01:53 | -21.48609 | -43.43667 | 6191 ft | 205 kts | 156° |
| 2026-05-06 01:54 | -21.49907 | -43.43056 | 6187 ft | 204 kts | 157° |
| 2026-05-06 01:54 | -21.51209 | -43.42441 | 6155 ft | 205 kts | 154° |
| 2026-05-06 01:54 | -21.52459 | -43.41675 | 5828 ft | 208 kts | 146° |
| 2026-05-06 01:54 | -21.53636 | -43.40759 | 5562 ft | 207 kts | 144° |
| 2026-05-06 01:55 | -21.54772 | -43.39841 | 5325 ft | 204 kts | 143° |
| 2026-05-06 01:55 | -21.55887 | -43.38940 | 5176 ft | 194 kts | 143° |
| 2026-05-06 01:55 | -21.56936 | -43.38095 | 4945 ft | 187 kts | 143° |
| 2026-05-06 01:55 | -21.57932 | -43.37294 | 4731 ft | 171 kts | 143° |
| 2026-05-06 01:56 | -21.58840 | -43.36554 | 4517 ft | 158 kts | 138° |
| 2026-05-06 01:56 | -21.59445 | -43.35616 | 4300 ft | 150 kts | 110° |
| 2026-05-06 01:56 | -21.59556 | -43.34508 | 4218 ft | 150 kts | 83° |
| 2026-05-06 01:56 | -21.59311 | -43.33422 | 4138 ft | 150 kts | 75° |
| 2026-05-06 01:57 | -21.58996 | -43.32342 | 4041 ft | 150 kts | 73° |
| 2026-05-06 01:57 | -21.58681 | -43.31281 | 3912 ft | 150 kts | 73° |
| 2026-05-06 01:57 | -21.58372 | -43.30220 | 3786 ft | 149 kts | 74° |
| 2026-05-06 01:57 | -21.58065 | -43.29149 | 3659 ft | 149 kts | 74° |
| 2026-05-06 01:58 | -21.57766 | -43.28091 | 3535 ft | 149 kts | 74° |
| 2026-05-06 01:58 | -21.57467 | -43.27036 | 3276 ft | 147 kts | 74° |
| 2026-05-06 01:58 | -21.57114 | -43.25991 | 3080 ft | 147 kts | 66° |
| 2026-05-06 01:58 | -21.56620 | -43.25031 | 2868 ft | 147 kts | 59° |
| 2026-05-06 01:59 | -21.56067 | -43.24108 | 2671 ft | 147 kts | 57° |
| 2026-05-06 01:59 | -21.55473 | -43.23219 | 2476 ft | 146 kts | 54° |
| 2026-05-06 01:59 | -21.54854 | -43.22344 | 2283 ft | 146 kts | 54° |
| 2026-05-06 01:59 | -21.54243 | -43.21478 | 2088 ft | 145 kts | 54° |
| 2026-05-06 02:00 | -21.53641 | -43.20615 | 1885 ft | 145 kts | 54° |
| 2026-05-06 02:00 | -21.53038 | -43.19755 | 1689 ft | 144 kts | 53° |
| 2026-05-06 02:00 | -21.52435 | -43.18903 | 1521 ft | 143 kts | 54° |
| 2026-05-06 02:00 | -21.51844 | -43.18040 | 1364 ft | 140 kts | 53° |
| 2026-05-06 02:01 | -21.51319 | -43.17292 | 1357 ft | 102 kts | 52° |
| 2026-05-06 02:01 | -21.50994 | -43.16830 | 1357 ft | 52 kts | 53° |
| 2026-05-06 02:01 | -21.50859 | -43.16634 | 1357 ft | 24 kts | 53° |
| 2026-05-06 02:01 | -21.50759 | -43.16492 | 1357 ft | 23 kts | 51° |
| 2026-05-06 02:02 | -21.50698 | -43.16389 | 1357 ft | 13 kts | 88° |
| 2026-05-06 02:02 | -21.50748 | -43.16313 | 1357 ft | 13 kts | 141° |
| 2026-05-06 02:02 | -21.50822 | -43.16251 | 1357 ft | 13 kts | 150° |
| 2026-05-06 02:02 | -21.50890 | -43.16299 | 1357 ft | 13 kts | 236° |
| 2026-05-06 02:03 | -21.50947 | -43.16315 | 1357 ft | 9 kts | 143° |
| 2026-05-06 02:03 | -21.50972 | -43.16295 | 1357 ft | 2 kts | 143° |
| 2026-05-06 02:03 | -21.50977 | -43.16291 | 1357 ft | 0 kts | 142° |